Etretat — FIDP — position and weather

sailwx.info

Track history (hours):
 
Tides and Currents Weather Stations Pressure Air Temp Water Temp Dewpoint Dewpoint Depression Visibility Wind Speed Wind Dir Waves Ship Positions

Etretat

Last reported at 2014-Oct-31 17:33 UTC. Time now 2014-Oct-31 18:02 UTC.
Position N 49°29' E 000°07'.

Length 187 m; draft 6.1 m.

Type: Ship. MMSI: 228022900.

Date/timePositionNaut miles runAvg speedWind from/ knotsBaromVisibWave heightAir tempDewpointWater temp
2014-Oct-31 17:33N 49°29' E 000°07'9 8.8
2014-Oct-31 16:33N 49°35' W 000°03'4520.0
2014-Oct-31 14:19N 50°15' W 000°35'1619.9
2014-Oct-31 13:31N 50°29' W 000°47'1818.6
2014-Oct-31 12:33N 50°44' W 001°02'6 5.6
2014-Oct-31 11:33N 50°49' W 001°06'0 0.0
2014-Oct-31 10:33N 50°49' W 001°06'0 0.0
2014-Oct-31 09:33N 50°49' W 001°06'0 0.0
2014-Oct-31 08:33N 50°49' W 001°06'1 0.8
2014-Oct-31 07:33N 50°48' W 001°07'1413.5
2014-Oct-31 06:33N 50°37' W 000°54'1211.9
2014-Oct-31 05:33N 50°27' W 000°46'1612.2
2014-Oct-31 04:16N 50°13' W 000°34'2612.0
2014-Oct-31 02:06N 49°50' W 000°15'712.0
2014-Oct-31 01:30N 49°43' W 000°11'5 5.0
2014-Oct-31 00:30N 49°40' W 000°04'2 2.4
2014-Oct-30 23:33N 49°39' W 000°07'2 2.1
2014-Oct-30 22:33N 49°37' W 000°06'1111.3
2014-Oct-30 21:33N 49°29' E 000°06'0 0.2
2014-Oct-30 20:33N 49°29' E 000°07'0 0.0
2014-Oct-30 19:33N 49°29' E 000°07'0 0.0
2014-Oct-30 18:33N 49°29' E 000°07'0 0.0
2014-Oct-30 17:33N 49°29' E 000°07'9 9.5
2014-Oct-30 16:34N 49°36' W 000°03'6019.1
2014-Oct-30 13:25N 50°29' W 000°48'1719.2
2014-Oct-30 12:33N 50°43' W 001°01'7 6.5
2014-Oct-30 11:33N 50°49' W 001°06'0 0.0
2014-Oct-30 10:34N 50°49' W 001°06'0 0.0
2014-Oct-30 09:34N 50°49' W 001°06'0 0.0
2014-Oct-30 08:33N 50°49' W 001°06'1 0.9
2014-Oct-30 07:34N 50°48' W 001°07'1312.8
2014-Oct-30 06:33N 50°38' W 000°55'9 9.3
2014-Oct-30 05:33N 50°29' W 000°50'5510.9
2014-Oct-30 00:33N 49°42' W 000°07'2 1.5
2014-Oct-29 23:32N 49°41' W 000°08'3 2.0
2014-Oct-29 22:17N 49°38' W 000°07'1014.0
2014-Oct-29 21:33N 49°30' E 000°01'4 3.5
2014-Oct-29 20:33N 49°29' E 000°07'0 0.0
2014-Oct-29 19:33N 49°29' E 000°07'0 0.2
2014-Oct-29 18:33N 49°29' E 000°06'0 0.0
2014-Oct-29 17:33N 49°29' E 000°06'0 0.0
2014-Oct-29 16:33N 49°29' E 000°06'0 0.0
2014-Oct-29 15:33N 49°29' E 000°06'0 0.0
2014-Oct-29 14:33N 49°29' E 000°06'0 0.0
2014-Oct-29 13:33N 49°29' E 000°06'0 0.0
2014-Oct-29 12:33N 49°29' E 000°06'0 0.0
2014-Oct-29 11:33N 49°29' E 000°06'0 0.0
2014-Oct-29 10:33N 49°29' E 000°06'0 0.0
2014-Oct-29 09:33N 49°29' E 000°06'0 0.0
2014-Oct-29 08:33N 49°29' E 000°06'0 0.0
2014-Oct-29 07:33N 49°29' E 000°06'0 0.0
2014-Oct-29 06:33N 49°29' E 000°06'0 0.0
2014-Oct-29 05:33N 49°29' E 000°06'0 0.0
2014-Oct-29 04:33N 49°29' E 000°06'0 0.0
2014-Oct-29 03:33N 49°29' E 000°06'0 0.0
2014-Oct-29 02:33N 49°29' E 000°06'0 0.0
2014-Oct-29 01:33N 49°29' E 000°06'0 0.0
2014-Oct-29 00:33N 49°29' E 000°06'0 0.0
2014-Oct-28 23:33N 49°29' E 000°06'0 0.0
2014-Oct-28 22:33N 49°29' E 000°06'0 0.0
2014-Oct-28 21:33N 49°29' E 000°06'0 0.0
2014-Oct-28 20:33N 49°29' E 000°06'0 0.0
2014-Oct-28 19:33N 49°29' E 000°06'0 0.0
2014-Oct-28 18:33N 49°29' E 000°06'0 0.0
2014-Oct-28 17:33N 49°29' E 000°06'0 0.0
2014-Oct-28 16:33N 49°29' E 000°06'0 0.0
2014-Oct-28 15:33N 49°29' E 000°06'0 0.0
2014-Oct-28 14:33N 49°29' E 000°06'0 0.0
2014-Oct-28 13:33N 49°29' E 000°06'0 0.0
2014-Oct-28 12:33N 49°29' E 000°06'0 0.0
2014-Oct-28 11:33N 49°29' E 000°06'0 0.0
2014-Oct-28 10:33N 49°29' E 000°06'0 0.0
2014-Oct-28 09:33N 49°29' E 000°06'8 8.1
2014-Oct-28 08:33N 49°35' W 000°03'1514.7
2014-Oct-28 07:32N 49°48' W 000°14'4314.4
2014-Oct-28 04:34N 50°26' W 000°45'1515.0
2014-Oct-28 03:34N 50°39' W 000°55'1212.0
2014-Oct-28 02:34N 50°49' W 001°07'0 0.5
2014-Oct-28 01:34N 50°49' W 001°06'0 0.1
2014-Oct-28 00:34N 50°49' W 001°06'1110.9
2014-Oct-27 23:34N 50°38' W 001°06'2623.9
2014-Oct-27 22:29N 50°20' W 001°36'2324.9
2014-Oct-27 21:34N 50°06' W 002°04'2524.9
2014-Oct-27 20:33N 49°52' W 002°35'2423.6
2014-Oct-27 19:34N 49°40' W 003°07'7623.2
2014-Oct-27 16:18N 48°48' W 004°31'1924.2
2014-Oct-27 15:32N 48°35' W 004°51'2021.0
2014-Oct-27 14:34N 48°18' W 005°09'2422.6
2014-Oct-27 13:30N 47°54' W 005°08'2122.0
2014-Oct-27 12:33N 47°34' W 005°01'4421.5
2014-Oct-27 10:31N 46°52' W 004°46'2121.6
2014-Oct-27 09:33N 46°31' W 004°38'2121.3
2014-Oct-27 08:33N 46°10' W 004°32'2221.6
2014-Oct-27 07:33N 45°49' W 004°26'2121.4
2014-Oct-27 06:33N 45°28' W 004°20'2121.2
2014-Oct-27 05:33N 45°08' W 004°14'2121.1
2014-Oct-27 04:33N 44°47' W 004°08'2121.2
2014-Oct-27 03:33N 44°26' W 004°02'2121.3
2014-Oct-27 02:33N 44°05' W 003°56'2121.3
2014-Oct-27 01:33N 43°45' W 003°49'6 0.6
2014-Oct-26 15:30N 43°38' W 003°47'1313.3
2014-Oct-26 14:33N 43°51' W 003°51'1313.4
2014-Oct-26 13:33N 44°04' W 003°55'1313.3
2014-Oct-26 12:33N 44°17' W 003°59'1912.9
2014-Oct-26 11:06N 44°35' W 004°05'713.2
2014-Oct-26 10:33N 44°42' W 004°07'20114.3
2014-Oct-25 20:26N 47°59' W 005°09'2021.3
2014-Oct-25 19:31N 48°18' W 005°09'1919.5
2014-Oct-25 18:33N 48°33' W 004°52'8519.8
2014-Oct-25 14:14N 49°34' W 003°20'1622.8
2014-Oct-25 13:32N 49°48' W 003°10'4922.4
2014-Oct-25 11:20N 50°12' W 002°03'2220.5
2014-Oct-25 10:16N 50°23' W 001°33'1419.3
2014-Oct-25 09:33N 50°31' W 001°15'1515.1
2014-Oct-25 08:34N 50°43' W 001°03'5 5.5
2014-Oct-25 07:33N 50°49' W 001°06'0 0.0
2014-Oct-25 06:33N 50°49' W 001°06'2 1.5
2014-Oct-25 05:33N 50°47' W 001°06'1717.4
2014-Oct-25 04:34N 50°33' W 000°51'4922.1
2014-Oct-25 02:21N 49°50' W 000°15'1822.2
2014-Oct-25 01:33N 49°34' W 000°02'8 7.7
2014-Oct-25 00:34N 49°29' E 000°07'0 0.0
2014-Oct-24 23:33N 49°29' E 000°07'0 0.0
2014-Oct-24 22:34N 49°29' E 000°07'0 0.0
2014-Oct-24 21:33N 49°29' E 000°07'0 0.0
2014-Oct-24 20:33N 49°29' E 000°07'0 0.0
2014-Oct-24 19:33N 49°29' E 000°07'0 0.0
2014-Oct-24 18:33N 49°29' E 000°07'0 0.0
2014-Oct-24 17:33N 49°29' E 000°07'2 1.9
2014-Oct-24 16:34N 49°29' E 000°04'2120.9
2014-Oct-24 15:33N 49°46' W 000°15'4821.1
2014-Oct-24 13:16N 50°30' W 000°48'1420.2
2014-Oct-24 12:33N 50°42' W 000°59'8 7.7
2014-Oct-24 11:34N 50°49' W 001°06'0 0.0
2014-Oct-24 10:33N 50°49' W 001°06'0 0.0
2014-Oct-24 09:33N 50°49' W 001°06'0 0.0
2014-Oct-24 08:33N 50°49' W 001°06'0 0.0
2014-Oct-24 07:33N 50°49' W 001°06'1 1.1
2014-Oct-24 06:34N 50°48' W 001°07'1313.2
2014-Oct-24 05:33N 50°37' W 000°54'1010.0
2014-Oct-24 04:33N 50°28' W 000°47'39 9.8
2014-Oct-24 00:34N 49°51' W 000°27'1010.1
2014-Oct-23 23:33N 49°41' W 000°22'1010.0
2014-Oct-23 22:33N 49°32' W 000°18'8 8.1
2014-Oct-23 21:33N 49°28' W 000°06'9 8.5
2014-Oct-23 20:33N 49°29' E 000°07'0 0.0
2014-Oct-23 19:33N 49°29' E 000°07'0 0.0
2014-Oct-23 18:33N 49°29' E 000°07'0 0.0
2014-Oct-23 17:33N 49°29' E 000°07'0 0.0
2014-Oct-23 16:33N 49°29' E 000°07'1212.3
2014-Oct-23 15:33N 49°38' W 000°06'5819.2
2014-Oct-23 12:33N 50°29' W 000°48'1717.6
2014-Oct-23 11:33N 50°44' W 001°03'5 5.1
2014-Oct-23 10:33N 50°49' W 001°06'0 0.0
2014-Oct-23 09:33N 50°49' W 001°06'0 0.0
2014-Oct-23 08:33N 50°49' W 001°06'0 0.0
2014-Oct-23 07:33N 50°49' W 001°06'1 0.8
2014-Oct-23 06:33N 50°48' W 001°07'1413.5
2014-Oct-23 05:33N 50°37' W 000°54'5511.0
2014-Oct-23 00:34N 49°46' W 000°24'1110.9
2014-Oct-22 23:34N 49°35' W 000°19'9 8.8
2014-Oct-22 22:33N 49°27' W 000°13'2 2.5
2014-Oct-22 21:33N 49°27' W 000°09'1010.3
2014-Oct-22 20:33N 49°29' E 000°07'0 0.0
2014-Oct-22 19:33N 49°29' E 000°07'0 0.0
2014-Oct-22 18:33N 49°29' E 000°07'0 0.0
2014-Oct-22 17:33N 49°29' E 000°07'2 1.8
2014-Oct-22 16:33N 49°29' E 000°04'6519.4
2014-Oct-22 13:13N 50°26' W 000°44'1219.1
2014-Oct-22 12:33N 50°37' W 000°54'1312.7
2014-Oct-22 11:33N 50°47' W 001°06'1 1.5
2014-Oct-22 10:33N 50°49' W 001°06'0 0.0
2014-Oct-22 09:33N 50°49' W 001°06'0 0.0
2014-Oct-22 08:33N 50°49' W 001°06'0 0.0
2014-Oct-22 07:33N 50°49' W 001°06'1 0.8
2014-Oct-22 06:33N 50°48' W 001°07'1313.2
2014-Oct-22 05:33N 50°36' W 000°58'6214.2
2014-Oct-22 01:10N 49°34' W 000°48'915.2
2014-Oct-22 00:33N 49°33' W 000°34'1515.1
2014-Oct-21 23:33N 49°31' W 000°11'1211.5
2014-Oct-21 22:33N 49°29' E 000°07'0 0.0
2014-Oct-21 21:33N 49°29' E 000°07'0 0.0
2014-Oct-21 20:33N 49°29' E 000°07'0 0.0
2014-Oct-21 19:34N 49°29' E 000°07'0 0.0
2014-Oct-21 18:34N 49°29' E 000°07'0 0.0
2014-Oct-21 17:34N 49°29' E 000°07'  
Track history (hours):
 
Tides and Currents Weather Stations Pressure Air Temp Water Temp Dewpoint Dewpoint Depression Visibility Wind Speed Wind Dir Waves Ship Positions

Etretat

Last reported at 2014-Oct-31 17:33 UTC. Time now 2014-Oct-31 18:03 UTC.
Position N 49°29' E 000°07'.

Length 187 m; draft 6.1 m.

Type: Ship. MMSI: 228022900.

Date/timePositionNaut miles runAvg speedWind from/ knotsBaromVisibWave heightAir tempDewpointWater temp
2014-Oct-31 17:33N 49°29' E 000°07'9 8.8
2014-Oct-31 16:33N 49°35' W 000°03'4520.0
2014-Oct-31 14:19N 50°15' W 000°35'1619.9
2014-Oct-31 13:31N 50°29' W 000°47'1818.6
2014-Oct-31 12:33N 50°44' W 001°02'6 5.6
2014-Oct-31 11:33N 50°49' W 001°06'0 0.0
2014-Oct-31 10:33N 50°49' W 001°06'0 0.0
2014-Oct-31 09:33N 50°49' W 001°06'0 0.0
2014-Oct-31 08:33N 50°49' W 001°06'1 0.8
2014-Oct-31 07:33N 50°48' W 001°07'1413.5
2014-Oct-31 06:33N 50°37' W 000°54'1211.9
2014-Oct-31 05:33N 50°27' W 000°46'1612.2
2014-Oct-31 04:16N 50°13' W 000°34'2612.0
2014-Oct-31 02:06N 49°50' W 000°15'712.0
2014-Oct-31 01:30N 49°43' W 000°11'5 5.0
2014-Oct-31 00:30N 49°40' W 000°04'2 2.4
2014-Oct-30 23:33N 49°39' W 000°07'2 2.1
2014-Oct-30 22:33N 49°37' W 000°06'1111.3
2014-Oct-30 21:33N 49°29' E 000°06'0 0.2
2014-Oct-30 20:33N 49°29' E 000°07'0 0.0
2014-Oct-30 19:33N 49°29' E 000°07'0 0.0
2014-Oct-30 18:33N 49°29' E 000°07'0 0.0
2014-Oct-30 17:33N 49°29' E 000°07'9 9.5
2014-Oct-30 16:34N 49°36' W 000°03'6019.1
2014-Oct-30 13:25N 50°29' W 000°48'1719.2
2014-Oct-30 12:33N 50°43' W 001°01'7 6.5
2014-Oct-30 11:33N 50°49' W 001°06'0 0.0
2014-Oct-30 10:34N 50°49' W 001°06'0 0.0
2014-Oct-30 09:34N 50°49' W 001°06'0 0.0
2014-Oct-30 08:33N 50°49' W 001°06'1 0.9
2014-Oct-30 07:34N 50°48' W 001°07'1312.8
2014-Oct-30 06:33N 50°38' W 000°55'9 9.3
2014-Oct-30 05:33N 50°29' W 000°50'5510.9
2014-Oct-30 00:33N 49°42' W 000°07'2 1.5
2014-Oct-29 23:32N 49°41' W 000°08'3 2.0
2014-Oct-29 22:17N 49°38' W 000°07'1014.0
2014-Oct-29 21:33N 49°30' E 000°01'4 3.5
2014-Oct-29 20:33N 49°29' E 000°07'0 0.0
2014-Oct-29 19:33N 49°29' E 000°07'0 0.2
2014-Oct-29 18:33N 49°29' E 000°06'0 0.0
2014-Oct-29 17:33N 49°29' E 000°06'0 0.0
2014-Oct-29 16:33N 49°29' E 000°06'0 0.0
2014-Oct-29 15:33N 49°29' E 000°06'0 0.0
2014-Oct-29 14:33N 49°29' E 000°06'0 0.0
2014-Oct-29 13:33N 49°29' E 000°06'0 0.0
2014-Oct-29 12:33N 49°29' E 000°06'0 0.0
2014-Oct-29 11:33N 49°29' E 000°06'0 0.0
2014-Oct-29 10:33N 49°29' E 000°06'0 0.0
2014-Oct-29 09:33N 49°29' E 000°06'0 0.0
2014-Oct-29 08:33N 49°29' E 000°06'0 0.0
2014-Oct-29 07:33N 49°29' E 000°06'0 0.0
2014-Oct-29 06:33N 49°29' E 000°06'0 0.0
2014-Oct-29 05:33N 49°29' E 000°06'0 0.0
2014-Oct-29 04:33N 49°29' E 000°06'0 0.0
2014-Oct-29 03:33N 49°29' E 000°06'0 0.0
2014-Oct-29 02:33N 49°29' E 000°06'0 0.0
2014-Oct-29 01:33N 49°29' E 000°06'0 0.0
2014-Oct-29 00:33N 49°29' E 000°06'0 0.0
2014-Oct-28 23:33N 49°29' E 000°06'0 0.0
2014-Oct-28 22:33N 49°29' E 000°06'0 0.0
2014-Oct-28 21:33N 49°29' E 000°06'0 0.0
2014-Oct-28 20:33N 49°29' E 000°06'0 0.0
2014-Oct-28 19:33N 49°29' E 000°06'0 0.0
2014-Oct-28 18:33N 49°29' E 000°06'0 0.0
2014-Oct-28 17:33N 49°29' E 000°06'0 0.0
2014-Oct-28 16:33N 49°29' E 000°06'0 0.0
2014-Oct-28 15:33N 49°29' E 000°06'0 0.0
2014-Oct-28 14:33N 49°29' E 000°06'0 0.0
2014-Oct-28 13:33N 49°29' E 000°06'0 0.0
2014-Oct-28 12:33N 49°29' E 000°06'0 0.0
2014-Oct-28 11:33N 49°29' E 000°06'0 0.0
2014-Oct-28 10:33N 49°29' E 000°06'0 0.0
2014-Oct-28 09:33N 49°29' E 000°06'8 8.1
2014-Oct-28 08:33N 49°35' W 000°03'1514.7
2014-Oct-28 07:32N 49°48' W 000°14'4314.4
2014-Oct-28 04:34N 50°26' W 000°45'1515.0
2014-Oct-28 03:34N 50°39' W 000°55'1212.0
2014-Oct-28 02:34N 50°49' W 001°07'0 0.5
2014-Oct-28 01:34N 50°49' W 001°06'0 0.1
2014-Oct-28 00:34N 50°49' W 001°06'1110.9
2014-Oct-27 23:34N 50°38' W 001°06'2623.9
2014-Oct-27 22:29N 50°20' W 001°36'2324.9
2014-Oct-27 21:34N 50°06' W 002°04'2524.9
2014-Oct-27 20:33N 49°52' W 002°35'2423.6
2014-Oct-27 19:34N 49°40' W 003°07'7623.2
2014-Oct-27 16:18N 48°48' W 004°31'1924.2
2014-Oct-27 15:32N 48°35' W 004°51'2021.0
2014-Oct-27 14:34N 48°18' W 005°09'2422.6
2014-Oct-27 13:30N 47°54' W 005°08'2122.0
2014-Oct-27 12:33N 47°34' W 005°01'4421.5
2014-Oct-27 10:31N 46°52' W 004°46'2121.6
2014-Oct-27 09:33N 46°31' W 004°38'2121.3
2014-Oct-27 08:33N 46°10' W 004°32'2221.6
2014-Oct-27 07:33N 45°49' W 004°26'2121.4
2014-Oct-27 06:33N 45°28' W 004°20'2121.2
2014-Oct-27 05:33N 45°08' W 004°14'2121.1
2014-Oct-27 04:33N 44°47' W 004°08'2121.2
2014-Oct-27 03:33N 44°26' W 004°02'2121.3
2014-Oct-27 02:33N 44°05' W 003°56'2121.3
2014-Oct-27 01:33N 43°45' W 003°49'6 0.6
2014-Oct-26 15:30N 43°38' W 003°47'1313.3
2014-Oct-26 14:33N 43°51' W 003°51'1313.4
2014-Oct-26 13:33N 44°04' W 003°55'1313.3
2014-Oct-26 12:33N 44°17' W 003°59'1912.9
2014-Oct-26 11:06N 44°35' W 004°05'713.2
2014-Oct-26 10:33N 44°42' W 004°07'20114.3
2014-Oct-25 20:26N 47°59' W 005°09'2021.3
2014-Oct-25 19:31N 48°18' W 005°09'1919.5
2014-Oct-25 18:33N 48°33' W 004°52'8519.8
2014-Oct-25 14:14N 49°34' W 003°20'1622.8
2014-Oct-25 13:32N 49°48' W 003°10'4922.4
2014-Oct-25 11:20N 50°12' W 002°03'2220.5
2014-Oct-25 10:16N 50°23' W 001°33'1419.3
2014-Oct-25 09:33N 50°31' W 001°15'1515.1
2014-Oct-25 08:34N 50°43' W 001°03'5 5.5
2014-Oct-25 07:33N 50°49' W 001°06'0 0.0
2014-Oct-25 06:33N 50°49' W 001°06'2 1.5
2014-Oct-25 05:33N 50°47' W 001°06'1717.4
2014-Oct-25 04:34N 50°33' W 000°51'4922.1
2014-Oct-25 02:21N 49°50' W 000°15'1822.2
2014-Oct-25 01:33N 49°34' W 000°02'8 7.7
2014-Oct-25 00:34N 49°29' E 000°07'0 0.0
2014-Oct-24 23:33N 49°29' E 000°07'0 0.0
2014-Oct-24 22:34N 49°29' E 000°07'0 0.0
2014-Oct-24 21:33N 49°29' E 000°07'0 0.0
2014-Oct-24 20:33N 49°29' E 000°07'0 0.0
2014-Oct-24 19:33N 49°29' E 000°07'0 0.0
2014-Oct-24 18:33N 49°29' E 000°07'0 0.0
2014-Oct-24 17:33N 49°29' E 000°07'2 1.9
2014-Oct-24 16:34N 49°29' E 000°04'2120.9
2014-Oct-24 15:33N 49°46' W 000°15'4821.1
2014-Oct-24 13:16N 50°30' W 000°48'1420.2
2014-Oct-24 12:33N 50°42' W 000°59'8 7.7
2014-Oct-24 11:34N 50°49' W 001°06'0 0.0
2014-Oct-24 10:33N 50°49' W 001°06'0 0.0
2014-Oct-24 09:33N 50°49' W 001°06'0 0.0
2014-Oct-24 08:33N 50°49' W 001°06'0 0.0
2014-Oct-24 07:33N 50°49' W 001°06'1 1.1
2014-Oct-24 06:34N 50°48' W 001°07'1313.2
2014-Oct-24 05:33N 50°37' W 000°54'1010.0
2014-Oct-24 04:33N 50°28' W 000°47'39 9.8
2014-Oct-24 00:34N 49°51' W 000°27'1010.1
2014-Oct-23 23:33N 49°41' W 000°22'1010.0
2014-Oct-23 22:33N 49°32' W 000°18'8 8.1
2014-Oct-23 21:33N 49°28' W 000°06'9 8.5
2014-Oct-23 20:33N 49°29' E 000°07'0 0.0
2014-Oct-23 19:33N 49°29' E 000°07'0 0.0
2014-Oct-23 18:33N 49°29' E 000°07'0 0.0
2014-Oct-23 17:33N 49°29' E 000°07'0 0.0
2014-Oct-23 16:33N 49°29' E 000°07'1212.3
2014-Oct-23 15:33N 49°38' W 000°06'5819.2
2014-Oct-23 12:33N 50°29' W 000°48'1717.6
2014-Oct-23 11:33N 50°44' W 001°03'5 5.1
2014-Oct-23 10:33N 50°49' W 001°06'0 0.0
2014-Oct-23 09:33N 50°49' W 001°06'0 0.0
2014-Oct-23 08:33N 50°49' W 001°06'0 0.0
2014-Oct-23 07:33N 50°49' W 001°06'1 0.8
2014-Oct-23 06:33N 50°48' W 001°07'1413.5
2014-Oct-23 05:33N 50°37' W 000°54'5511.0
2014-Oct-23 00:34N 49°46' W 000°24'1110.9
2014-Oct-22 23:34N 49°35' W 000°19'9 8.8
2014-Oct-22 22:33N 49°27' W 000°13'2 2.5
2014-Oct-22 21:33N 49°27' W 000°09'1010.3
2014-Oct-22 20:33N 49°29' E 000°07'0 0.0
2014-Oct-22 19:33N 49°29' E 000°07'0 0.0
2014-Oct-22 18:33N 49°29' E 000°07'0 0.0
2014-Oct-22 17:33N 49°29' E 000°07'2 1.8
2014-Oct-22 16:33N 49°29' E 000°04'6519.4
2014-Oct-22 13:13N 50°26' W 000°44'1219.1
2014-Oct-22 12:33N 50°37' W 000°54'1312.7
2014-Oct-22 11:33N 50°47' W 001°06'1 1.5
2014-Oct-22 10:33N 50°49' W 001°06'0 0.0
2014-Oct-22 09:33N 50°49' W 001°06'0 0.0
2014-Oct-22 08:33N 50°49' W 001°06'0 0.0
2014-Oct-22 07:33N 50°49' W 001°06'1 0.8
2014-Oct-22 06:33N 50°48' W 001°07'1313.2
2014-Oct-22 05:33N 50°36' W 000°58'6214.2
2014-Oct-22 01:10N 49°34' W 000°48'915.2
2014-Oct-22 00:33N 49°33' W 000°34'1515.1
2014-Oct-21 23:33N 49°31' W 000°11'1211.5
2014-Oct-21 22:33N 49°29' E 000°07'0 0.0
2014-Oct-21 21:33N 49°29' E 000°07'0 0.0
2014-Oct-21 20:33N 49°29' E 000°07'0 0.0
2014-Oct-21 19:34N 49°29' E 000°07'0 0.0
2014-Oct-21 18:34N 49°29' E 000°07'0 0.0
2014-Oct-21 17:34N 49°29' E 000°07'  

Dump ship's entire track history